Time;durP1;ratioP1;P1;durP2;ratioP2;P2;SDS_P1;SDS_P2;PMS_P1;PMS_P2;Temp;Humidity;BMP_temperature;BMP_pressure;BME280_temperature;BME280_humidity;BME280_pressure;Samples;Min_cycle;Max_cycle;Signal;HPM_P1;HPM_P2
2022/03/25 00:00:47;;;;;;;43.38;20.52;;;;;;;13.45;24.50;102247.72;5073425;28;20087;-73
2022/03/25 00:03:13;;;;;;;43.97;21.27;;;;;;;13.49;24.52;102246.44;5073662;28;20051;-73
2022/03/25 00:05:40;;;;;;;50.33;20.13;;;;;;;13.41;24.64;102240.91;5073097;28;20128;-73
2022/03/25 00:08:06;;;;;;;45.65;20.65;;;;;;;13.44;24.66;102240.63;5073785;28;20407;-73
2022/03/25 00:10:34;;;;;;;47.17;20.77;;;;;;;13.34;24.69;102244.16;5071888;28;20044;-73
2022/03/25 00:13:00;;;;;;;42.92;21.50;;;;;;;13.33;24.85;102242.47;5069491;28;20477;-73
2022/03/25 00:15:27;;;;;;;45.25;21.25;;;;;;;13.33;24.98;102237.09;5054238;28;21087;-72
2022/03/25 00:17:53;;;;;;;48.45;20.25;;;;;;;13.22;25.15;102236.38;5061225;28;20135;-72
2022/03/25 00:20:19;;;;;;;49.63;20.08;;;;;;;13.27;25.25;102243.03;5063735;28;20045;-73
2022/03/25 00:22:46;;;;;;;44.20;19.98;;;;;;;13.18;25.35;102233.13;5053081;28;20110;-73
2022/03/25 00:25:13;;;;;;;46.75;20.73;;;;;;;13.13;25.58;102232.66;5052459;28;20548;-73
2022/03/25 00:27:39;;;;;;;48.17;21.55;;;;;;;13.21;25.06;102232.81;5053027;28;20454;-72
2022/03/25 00:30:06;;;;;;;45.03;20.55;;;;;;;13.14;25.35;102236.22;5052548;28;20506;-73
2022/03/25 00:32:32;;;;;;;41.92;20.10;;;;;;;13.07;25.45;102241.31;5053265;28;20136;-72
2022/03/25 00:34:59;;;;;;;43.78;19.73;;;;;;;13.05;25.42;102229.84;5071129;28;20143;-73
2022/03/25 00:37:26;;;;;;;42.17;20.35;;;;;;;13.15;25.36;102227.16;5048873;28;20131;-73
2022/03/25 00:39:52;;;;;;;40.85;20.17;;;;;;;12.96;25.83;102226.13;5066522;28;20072;-72
2022/03/25 00:42:19;;;;;;;45.88;20.67;;;;;;;13.01;25.93;102215.78;5065836;28;20123;-72
2022/03/25 00:44:47;;;;;;;40.17;20.42;;;;;;;12.86;25.82;102218.00;5054358;28;20128;-73
2022/03/25 00:47:14;;;;;;;36.88;20.02;;;;;;;12.82;26.15;102224.69;5072737;28;20090;-72
2022/03/25 00:49:41;;;;;;;34.58;19.13;;;;;;;12.83;25.93;102221.00;5071776;28;20044;-72
2022/03/25 00:52:07;;;;;;;38.38;20.30;;;;;;;12.84;26.10;102220.00;5072687;28;20498;-72
2022/03/25 00:54:37;;;;;;;41.15;20.00;;;;;;;12.78;26.04;102219.72;5072850;28;20120;-72
2022/03/25 00:57:03;;;;;;;40.20;20.05;;;;;;;12.76;25.95;102221.69;5068069;28;20120;-73
2022/03/25 00:59:30;;;;;;;47.35;21.20;;;;;;;12.67;26.14;102220.66;5071992;28;20315;-73
2022/03/25 01:01:57;;;;;;;44.15;20.80;;;;;;;12.66;26.19;102218.94;5071627;28;20476;-72
2022/03/25 01:04:24;;;;;;;43.22;19.70;;;;;;;12.68;26.24;102218.81;5071168;28;20060;-72
2022/03/25 01:06:51;;;;;;;38.05;19.40;;;;;;;12.61;26.26;102213.97;5071896;28;20124;-72
2022/03/25 01:09:17;;;;;;;40.63;18.58;;;;;;;12.64;26.31;102219.06;5066705;28;20131;-72
2022/03/25 01:11:45;;;;;;;39.42;19.50;;;;;;;12.64;26.52;102207.47;5056781;28;20127;-71
2022/03/25 01:14:11;;;;;;;41.33;20.15;;;;;;;12.61;26.38;102218.50;5056154;28;20063;-71
2022/03/25 01:16:37;;;;;;;43.25;18.80;;;;;;;12.53;26.60;102202.19;5050291;28;20144;-73
2022/03/25 01:19:05;;;;;;;40.58;19.45;;;;;;;12.47;26.75;102210.81;5051436;28;20037;-72
2022/03/25 01:21:32;;;;;;;47.33;20.67;;;;;;;12.53;26.37;102202.19;5051095;28;20128;-73
2022/03/25 01:23:59;;;;;;;40.63;20.33;;;;;;;12.44;26.77;102201.16;5063966;28;20132;-72
2022/03/25 01:26:25;;;;;;;44.20;19.88;;;;;;;12.44;26.62;102200.31;5071198;28;20539;-72
2022/03/25 01:28:52;;;;;;;45.08;20.23;;;;;;;12.36;26.87;102201.00;5066379;28;20040;-72
2022/03/25 01:31:19;;;;;;;41.13;20.13;;;;;;;12.30;26.79;102202.38;5070465;28;20040;-72
2022/03/25 01:33:46;;;;;;;43.20;20.23;;;;;;;12.46;26.46;102201.03;5071098;28;20044;-73
2022/03/25 01:36:13;;;;;;;42.95;20.15;;;;;;;12.44;26.68;102200.31;5067312;28;20131;-71
2022/03/25 01:38:39;;;;;;;37.28;19.73;;;;;;;12.37;26.85;102200.00;5072226;28;20072;-71
2022/03/25 01:41:07;;;;;;;41.70;20.60;;;;;;;12.29;26.83;102206.06;5067460;28;20060;-72
2022/03/25 01:43:34;;;;;;;43.22;20.08;;;;;;;12.26;26.98;102200.94;5071601;28;20540;-72
2022/03/25 01:46:01;;;;;;;47.70;19.00;;;;;;;12.31;27.02;102209.44;5071305;28;20112;-72
2022/03/25 01:48:28;;;;;;;42.10;19.77;;;;;;;12.32;26.89;102203.09;5063485;28;20069;-72
2022/03/25 01:50:54;;;;;;;38.83;19.80;;;;;;;12.18;27.39;102211.53;5056583;28;20044;-72
2022/03/25 01:53:24;;;;;;;44.58;19.90;;;;;;;12.33;27.11;102210.19;5050421;28;20064;-72
2022/03/25 01:55:56;;;;;;;44.90;20.00;;;;;;;12.28;27.13;102217.81;5055492;28;20116;-72
2022/03/25 01:58:25;;;;;;;42.72;20.75;;;;;;;12.29;27.04;102215.97;5051122;28;20072;-72
2022/03/25 02:00:51;;;;;;;44.13;19.33;;;;;;;12.22;26.94;102215.66;5056460;28;20128;-72
2022/03/25 02:03:19;;;;;;;42.58;19.88;;;;;;;12.14;27.16;102218.16;5050918;28;20382;-73
2022/03/25 02:09:32;;;;;;;40.05;18.77;;;;;;;11.99;27.56;102197.97;5058757;28;20051;-72
2022/03/25 02:11:59;;;;;;;39.30;21.27;;;;;;;11.93;27.60;102202.94;5071369;28;20080;-72
2022/03/25 02:14:25;;;;;;;38.85;20.00;;;;;;;11.86;27.37;102206.25;5058627;28;20471;-73
2022/03/25 02:16:52;;;;;;;47.42;19.77;;;;;;;11.85;27.53;102201.88;5070218;28;20446;-72
2022/03/25 02:19:19;;;;;;;40.05;19.27;;;;;;;11.75;27.73;102193.75;5068162;28;20402;-73
2022/03/25 02:21:47;;;;;;;48.70;20.73;;;;;;;11.76;27.65;102199.97;5066942;28;20102;-73
2022/03/25 02:24:14;;;;;;;44.05;20.25;;;;;;;11.67;27.77;102199.78;5053103;28;20061;-73
2022/03/25 02:26:42;;;;;;;37.03;19.15;;;;;;;11.62;27.86;102204.69;5052168;28;20048;-72
2022/03/25 02:29:14;;;;;;;54.97;20.17;;;;;;;11.63;28.11;102205.53;5051252;28;20131;-72
2022/03/25 02:31:41;;;;;;;39.88;19.20;;;;;;;11.61;28.20;102202.94;5050472;28;20128;-73
2022/03/25 02:34:09;;;;;;;42.42;20.65;;;;;;;11.50;28.21;102202.16;5054436;28;20484;-72
2022/03/25 02:36:40;;;;;;;40.72;19.02;;;;;;;11.60;28.06;102197.72;5071198;28;20181;-72
2022/03/25 02:39:09;;;;;;;43.85;20.58;;;;;;;11.53;28.04;102205.44;5067235;28;20049;-73
2022/03/25 02:41:36;;;;;;;39.97;20.10;;;;;;;11.51;28.09;102201.19;5029536;28;20116;-73
2022/03/25 02:44:03;;;;;;;41.03;20.00;;;;;;;11.45;28.16;102198.03;5030930;28;21651;-73
2022/03/25 02:46:30;;;;;;;38.78;19.50;;;;;;;11.39;28.34;102206.63;5035178;28;20064;-73
2022/03/25 02:48:57;;;;;;;45.45;19.88;;;;;;;11.41;28.33;102206.47;5060131;28;20045;-73
2022/03/25 02:51:23;;;;;;;45.95;21.20;;;;;;;11.42;28.09;102206.38;5056601;28;20127;-73
2022/03/25 02:53:50;;;;;;;41.53;19.95;;;;;;;11.43;28.00;102207.22;5060662;28;20048;-73
2022/03/25 02:56:18;;;;;;;41.80;20.35;;;;;;;11.36;28.40;102209.56;5070109;28;20064;-72
2022/03/25 02:58:45;;;;;;;42.20;20.70;;;;;;;11.31;28.25;102211.81;5067257;28;20068;-73
2022/03/25 03:01:13;;;;;;;42.83;20.23;;;;;;;11.19;28.44;102208.28;5071646;28;20105;-73
2022/03/25 03:03:40;;;;;;;43.05;20.38;;;;;;;11.25;28.29;102206.94;5071534;28;20050;-73
2022/03/25 03:06:07;;;;;;;45.30;20.52;;;;;;;11.23;28.24;102198.97;5067985;28;20045;-72
2022/03/25 03:08:35;;;;;;;39.05;20.83;;;;;;;11.28;28.39;102206.69;5073505;28;20962;-73
2022/03/25 03:11:02;;;;;;;45.22;21.90;;;;;;;11.22;28.11;102208.03;5074020;28;20048;-73
2022/03/25 03:13:29;;;;;;;42.60;21.05;;;;;;;11.23;28.29;102203.50;5072891;28;20500;-73
2022/03/25 03:15:56;;;;;;;41.45;20.90;;;;;;;11.16;28.38;102202.31;5073876;28;20135;-73
2022/03/25 03:18:22;;;;;;;41.63;20.33;;;;;;;11.23;28.29;102208.88;5074147;28;20044;-73
2022/03/25 03:20:49;;;;;;;46.95;21.08;;;;;;;11.16;28.53;102203.16;5071582;28;20075;-73
2022/03/25 03:23:15;;;;;;;42.53;20.83;;;;;;;11.11;28.75;102207.22;5056525;28;20120;-72
2022/03/25 03:25:42;;;;;;;42.13;21.10;;;;;;;11.19;28.64;102210.97;5052635;28;20443;-73
2022/03/25 03:28:08;;;;;;;41.78;20.67;;;;;;;11.26;28.49;102208.63;5052680;28;20178;-72
2022/03/25 03:30:35;;;;;;;43.25;21.73;;;;;;;11.17;28.51;102202.19;5053821;28;20099;-72
2022/03/25 03:33:04;;;;;;;41.38;21.13;;;;;;;11.18;28.40;102206.59;5052414;28;20503;-72
2022/03/25 03:35:34;;;;;;;40.05;20.83;;;;;;;11.13;28.24;102203.41;5053038;28;20045;-72
2022/03/25 03:38:03;;;;;;;42.08;21.20;;;;;;;11.08;28.37;102204.78;5064965;28;20094;-73
2022/03/25 03:40:30;;;;;;;41.20;21.23;;;;;;;11.07;28.54;102205.78;5073086;28;20068;-73
2022/03/25 03:42:56;;;;;;;55.72;23.00;;;;;;;10.96;28.60;102212.91;5072670;28;20071;-73
2022/03/25 03:45:23;;;;;;;45.15;23.25;;;;;;;11.02;28.56;102210.66;5060535;28;20131;-73
2022/03/25 03:47:50;;;;;;;50.55;22.15;;;;;;;10.99;28.70;102212.63;5054085;28;20049;-72
2022/03/25 03:50:17;;;;;;;49.85;22.95;;;;;;;10.89;28.86;102214.34;5053619;28;20064;-73
2022/03/25 03:52:44;;;;;;;50.85;23.63;;;;;;;10.84;29.00;102221.94;5053015;28;20148;-73
2022/03/25 03:55:11;;;;;;;45.55;22.05;;;;;;;10.89;28.67;102227.78;5053172;28;20088;-73
2022/03/25 03:57:38;;;;;;;57.85;24.80;;;;;;;10.89;28.68;102227.78;5052875;28;20040;-73
2022/03/25 04:00:09;;;;;;;54.13;24.05;;;;;;;10.87;28.55;102221.69;5073559;28;20127;-72
2022/03/25 04:02:35;;;;;;;44.95;22.48;;;;;;;10.85;28.65;102217.41;5069705;28;20060;-73
2022/03/25 04:05:02;;;;;;;53.15;24.63;;;;;;;10.85;28.67;102217.41;5072929;28;20048;-73
2022/03/25 04:07:28;;;;;;;52.85;24.10;;;;;;;10.83;28.66;102217.56;5073580;28;20066;-72
2022/03/25 04:09:55;;;;;;;52.35;23.23;;;;;;;10.83;28.87;102220.25;5069776;28;20079;-73
2022/03/25 04:12:21;;;;;;;44.97;23.33;;;;;;;10.80;28.87;102217.81;5072620;28;20128;-73
2022/03/25 04:14:48;;;;;;;53.03;24.08;;;;;;;10.85;28.70;102226.31;5067765;28;20119;-73
2022/03/25 04:17:15;;;;;;;55.53;25.02;;;;;;;10.75;28.96;102225.38;5059082;28;20044;-73
2022/03/25 04:19:41;;;;;;;49.75;24.45;;;;;;;10.82;28.78;102229.25;5073457;28;20401;-73
2022/03/25 04:22:08;;;;;;;49.97;23.75;;;;;;;10.73;29.01;102227.34;5073162;28;20139;-73
2022/03/25 04:24:34;;;;;;;52.95;23.75;;;;;;;10.66;29.24;102226.97;5072504;28;20068;-73
2022/03/25 04:27:01;;;;;;;54.13;23.25;;;;;;;10.69;29.22;102228.56;5072624;28;20123;-73
2022/03/25 04:29:27;;;;;;;50.20;24.00;;;;;;;10.68;29.06;102225.00;5072987;28;20463;-73
2022/03/25 04:31:54;;;;;;;52.45;23.92;;;;;;;10.59;29.28;102227.59;5071518;28;20133;-72
2022/03/25 04:34:20;;;;;;;50.65;22.75;;;;;;;10.58;29.29;102233.94;5073534;28;20131;-73
2022/03/25 04:36:47;;;;;;;49.67;23.98;;;;;;;10.45;29.49;102221.47;5073162;28;20083;-72
2022/03/25 04:39:13;;;;;;;48.25;22.83;;;;;;;10.47;29.43;102230.25;5072491;28;20219;-73
2022/03/25 04:41:40;;;;;;;52.42;23.58;;;;;;;10.45;29.47;102221.47;5072176;28;20119;-73
2022/03/25 04:44:07;;;;;;;47.00;22.90;;;;;;;10.37;29.53;102225.72;5071439;28;20238;-73
2022/03/25 04:46:35;;;;;;;48.58;22.73;;;;;;;10.34;29.56;102226.84;5072273;28;20044;-72
2022/03/25 04:49:01;;;;;;;51.25;24.08;;;;;;;10.41;29.37;102228.06;5072018;28;20060;-72
2022/03/25 04:51:28;;;;;;;52.95;22.30;;;;;;;10.45;29.34;102236.72;5072351;28;20075;-72
2022/03/25 04:53:54;;;;;;;51.75;24.42;;;;;;;10.37;29.61;102231.09;5073259;28;20488;-72
2022/03/25 04:56:20;;;;;;;50.97;23.80;;;;;;;10.43;29.33;102236.84;5073365;28;20091;-72
2022/03/25 04:58:47;;;;;;;48.80;22.77;;;;;;;10.48;29.37;102231.97;5073466;28;20063;-73
2022/03/25 05:01:13;;;;;;;45.95;23.10;;;;;;;10.53;29.28;102236.16;5068812;28;20044;-73
2022/03/25 05:03:40;;;;;;;50.55;23.38;;;;;;;10.38;29.52;102233.69;5072789;28;20052;-73
2022/03/25 05:06:07;;;;;;;50.17;22.60;;;;;;;10.27;29.78;102239.06;5073311;28;20048;-73
2022/03/25 05:08:33;;;;;;;53.50;23.00;;;;;;;10.35;30.03;102243.81;5073493;28;20048;-73
2022/03/25 05:11:03;;;;;;;42.28;20.80;;;;;;;10.45;29.89;102239.41;5073022;28;20628;-73
2022/03/25 05:13:30;;;;;;;51.70;23.13;;;;;;;10.36;29.64;102246.34;5071391;28;20044;-73
2022/03/25 05:15:57;;;;;;;50.10;24.05;;;;;;;10.32;29.95;102246.72;5072092;28;20124;-72
2022/03/25 05:18:24;;;;;;;46.63;23.60;;;;;;;10.32;30.02;102252.09;5070904;28;20520;-72
2022/03/25 05:20:50;;;;;;;45.83;22.92;;;;;;;10.18;29.82;102250.50;5069909;28;20036;-73
2022/03/25 05:23:17;;;;;;;47.03;23.10;;;;;;;10.44;29.74;102248.41;5069878;28;20053;-72
2022/03/25 05:25:43;;;;;;;49.17;23.50;;;;;;;10.42;29.27;102253.06;5071255;28;20064;-73
2022/03/25 05:28:09;;;;;;;51.03;23.02;;;;;;;10.51;29.46;102244.28;5070533;28;20135;-73
2022/03/25 05:30:36;;;;;;;45.60;22.50;;;;;;;10.47;29.31;102248.19;5070733;28;20070;-73
2022/03/25 05:33:02;;;;;;;48.60;22.58;;;;;;;10.34;29.54;102253.69;5072417;28;20136;-73
2022/03/25 05:35:30;;;;;;;49.17;22.85;;;;;;;10.48;29.38;102250.75;5072674;28;20051;-73
2022/03/25 05:37:57;;;;;;;59.58;23.77;;;;;;;10.59;28.97;102246.41;5070829;28;20040;-73
2022/03/25 05:40:25;;;;;;;49.40;21.95;;;;;;;10.60;29.11;102258.81;5070555;28;20044;-73
2022/03/25 05:42:53;;;;;;;55.03;23.55;;;;;;;10.76;28.97;102248.56;5070104;28;20060;-73
2022/03/25 05:45:20;;;;;;;55.35;24.00;;;;;;;10.77;28.92;102260.16;5071125;28;20063;-72
2022/03/25 05:47:47;;;;;;;59.60;24.13;;;;;;;10.84;28.86;102258.69;5067447;28;20046;-73
2022/03/25 05:50:14;;;;;;;49.58;23.17;;;;;;;10.81;28.97;102258.94;5071524;28;20513;-73
2022/03/25 05:52:41;;;;;;;47.67;22.73;;;;;;;10.87;28.84;102264.66;5070845;28;20098;-72
2022/03/25 05:55:08;;;;;;;47.22;23.67;;;;;;;10.94;28.94;102265.84;5071702;28;20076;-73
2022/03/25 05:57:35;;;;;;;47.08;21.83;;;;;;;11.11;28.54;102260.94;5070764;28;20094;-73
2022/03/25 06:00:04;;;;;;;45.45;24.17;;;;;;;10.99;28.77;102258.25;5070503;28;20053;-73
2022/03/25 06:02:30;;;;;;;47.30;22.88;;;;;;;11.05;28.59;102264.13;5070793;28;20067;-73
2022/03/25 06:04:58;;;;;;;50.47;22.38;;;;;;;11.12;28.60;102263.50;5071202;28;20112;-72
2022/03/25 06:07:24;;;;;;;47.13;23.35;;;;;;;11.09;28.73;102261.06;5071747;28;20074;-72
2022/03/25 06:09:51;;;;;;;59.65;26.17;;;;;;;11.21;28.61;102256.53;5070771;28;20056;-72
2022/03/25 06:12:18;;;;;;;62.10;26.08;;;;;;;11.27;28.66;102264.06;5070801;28;20094;-73
2022/03/25 06:14:45;;;;;;;48.22;23.05;;;;;;;11.46;28.23;102264.25;5070593;28;20049;-73
2022/03/25 06:17:11;;;;;;;56.92;24.02;;;;;;;11.37;28.19;102269.53;5071630;28;20048;-73
2022/03/25 06:19:37;;;;;;;56.90;23.75;;;;;;;11.66;28.05;102267.97;5071128;28;20069;-72
2022/03/25 06:22:04;;;;;;;58.42;25.95;;;;;;;11.60;28.18;102267.59;5071627;28;20056;-73
2022/03/25 06:24:30;;;;;;;47.90;23.08;;;;;;;11.38;28.88;102258.66;5071985;28;20136;-73
2022/03/25 06:26:57;;;;;;;55.03;24.52;;;;;;;11.77;28.15;102269.75;5069945;28;20127;-73
2022/03/25 06:29:23;;;;;;;61.47;24.08;;;;;;;11.92;28.09;102265.75;5069104;28;20041;-72
2022/03/25 06:31:50;;;;;;;53.30;23.33;;;;;;;12.04;27.79;102273.78;5066828;28;20131;-73
2022/03/25 06:34:20;;;;;;;48.20;24.05;;;;;;;12.20;27.73;102278.66;5070499;28;20098;-73
2022/03/25 06:36:50;;;;;;;72.07;25.65;;;;;;;12.24;27.76;102277.41;5070736;28;20044;-73
2022/03/25 06:39:17;;;;;;;54.00;24.70;;;;;;;12.64;27.21;102278.31;5069745;28;20509;-73
2022/03/25 06:41:44;;;;;;;57.92;24.08;;;;;;;12.72;26.96;102279.47;5072321;28;20136;-73
2022/03/25 06:44:10;;;;;;;52.40;23.52;;;;;;;13.11;26.55;102277.75;5074970;28;20072;-73
2022/03/25 06:46:37;;;;;;;59.83;25.45;;;;;;;13.47;26.15;102284.34;5074681;28;20434;-73
2022/03/25 06:49:05;;;;;;;58.25;25.38;;;;;;;13.53;25.91;102280.25;5033869;28;20056;-73
2022/03/25 06:51:31;;;;;;;55.70;26.13;;;;;;;13.87;25.12;102283.34;5075211;28;20040;-73
2022/03/25 06:53:58;;;;;;;60.92;27.50;;;;;;;14.24;24.93;102286.13;5074923;28;20102;-73
2022/03/25 06:56:25;;;;;;;52.17;24.95;;;;;;;14.55;24.46;102285.88;5074004;28;20051;-73
2022/03/25 06:58:52;;;;;;;43.63;24.00;;;;;;;14.67;24.15;102290.09;5072847;28;20075;-74
2022/03/25 07:01:19;;;;;;;58.28;28.40;;;;;;;14.95;23.89;102284.75;5064921;28;20488;-74
2022/03/25 07:03:46;;;;;;;66.40;26.98;;;;;;;15.25;23.57;102291.63;5071981;28;20119;-72
2022/03/25 07:06:15;;;;;;;55.65;27.17;;;;;;;15.49;23.14;102286.47;5074917;28;20090;-73
2022/03/25 07:08:45;;;;;;;56.45;25.52;;;;;;;15.43;23.22;102288.94;5072319;28;20477;-74
2022/03/25 07:11:13;;;;;;;46.30;24.38;;;;;;;15.82;22.81;102283.25;5060231;28;20051;-72
2022/03/25 07:13:39;;;;;;;50.08;25.67;;;;;;;16.15;22.33;102296.00;5059137;28;20051;-73
2022/03/25 07:16:06;;;;;;;55.58;25.85;;;;;;;16.10;22.08;102295.66;5056860;28;20053;-73
2022/03/25 07:18:34;;;;;;;50.10;24.95;;;;;;;16.42;21.82;102300.41;5064270;28;20390;-74
2022/03/25 07:21:01;;;;;;;49.40;25.27;;;;;;;16.44;21.90;102305.69;5042057;28;20045;-73
2022/03/25 07:23:27;;;;;;;44.50;24.70;;;;;;;16.58;21.66;102307.81;5067497;28;20087;-73
2022/03/25 07:25:54;;;;;;;66.07;26.83;;;;;;;16.77;21.34;102314.84;5056491;28;20048;-73
2022/03/25 07:28:22;;;;;;;53.88;26.23;;;;;;;17.11;21.07;102312.09;5055037;28;20103;-73
2022/03/25 07:30:48;;;;;;;45.90;24.27;;;;;;;17.72;20.12;102320.06;5054664;28;20065;-73
2022/03/25 07:33:15;;;;;;;51.20;24.75;;;;;;;17.27;20.47;102315.88;5062004;28;20451;-73
2022/03/25 07:35:41;;;;;;;53.83;24.55;;;;;;;17.41;20.31;102317.13;5055348;28;20049;-73
2022/03/25 07:38:09;;;;;;;50.08;25.17;;;;;;;18.52;19.17;102322.88;5054266;28;20132;-73
2022/03/25 07:40:35;;;;;;;47.83;26.38;;;;;;;18.18;19.78;102320.41;5062910;28;20484;-73
2022/03/25 07:43:02;;;;;;;53.78;25.88;;;;;;;18.39;19.40;102317.97;5073912;28;20072;-73
2022/03/25 07:45:32;;;;;;;50.42;25.88;;;;;;;18.52;19.49;102325.59;5073099;28;20046;-73
2022/03/25 07:47:59;;;;;;;48.90;24.80;;;;;;;19.13;18.70;102318.56;5072988;28;20048;-72
2022/03/25 07:50:25;;;;;;;52.70;25.98;;;;;;;19.04;18.68;102324.25;5072148;28;20044;-72
2022/03/25 07:52:52;;;;;;;56.67;26.80;;;;;;;19.14;18.73;102324.84;5072970;28;20066;-72
2022/03/25 07:55:20;;;;;;;52.42;26.65;;;;;;;19.52;18.36;102322.25;5073282;28;20052;-72
2022/03/25 07:57:48;;;;;;;50.30;26.20;;;;;;;19.15;18.65;102329.28;5072374;28;20044;-71
2022/03/25 08:00:15;;;;;;;58.67;25.17;;;;;;;19.67;18.41;102324.03;5072445;28;20142;-73
2022/03/25 08:02:45;;;;;;;54.75;29.63;;;;;;;20.19;18.26;102328.69;5054155;28;20061;-73
2022/03/25 08:05:13;;;;;;;66.10;29.55;;;;;;;20.12;18.08;102329.63;5072356;28;20492;-73
2022/03/25 08:07:48;;;;;;;54.38;28.80;;;;;;;20.89;17.24;102329.31;5072042;28;20477;-71
2022/03/25 08:10:20;;;;;;;47.13;26.40;;;;;;;21.13;16.96;102329.03;5072860;28;20050;-73
2022/03/25 08:12:48;;;;;;;53.83;26.10;;;;;;;20.54;17.83;102329.06;5071572;28;20106;-72
2022/03/25 08:15:14;;;;;;;46.47;27.00;;;;;;;21.27;16.92;102329.19;5072662;28;20041;-72
2022/03/25 08:18:19;;;;;;;52.83;27.50;;;;;;;21.30;17.06;102326.91;5072314;28;20054;-73
2022/03/25 08:20:48;;;;;;;62.20;28.27;;;;;;;21.27;17.08;102334.63;4952920;28;20055;-73
2022/03/25 08:28:52;;;;;;;48.45;25.70;;;;;;;22.59;15.63;102340.47;4952808;28;20129;-72
2022/03/25 08:31:39;;;;;;;47.35;24.42;;;;;;;22.35;15.80;102335.44;4952443;28;20049;-72
2022/03/25 08:34:08;;;;;;;44.72;25.10;;;;;;;22.31;16.07;102335.84;4952106;28;20054;-72
2022/03/25 08:36:34;;;;;;;55.22;26.23;;;;;;;22.19;16.15;102344.81;4952979;28;20078;-73
2022/03/25 08:39:01;;;;;;;45.75;25.20;;;;;;;22.37;16.26;102347.88;4952384;28;20051;-73
2022/03/25 08:41:28;;;;;;;48.22;26.10;;;;;;;21.85;16.42;102351.88;4951611;28;20047;-73
2022/03/25 08:43:54;;;;;;;45.92;25.25;;;;;;;22.19;16.35;102348.38;4951903;28;20051;-73
2022/03/25 08:46:21;;;;;;;45.17;25.60;;;;;;;22.58;15.96;102344.28;4951399;29;20051;-73
2022/03/25 08:48:47;;;;;;;52.10;27.95;;;;;;;21.93;16.72;102346.28;4950196;28;20048;-72
2022/03/25 08:51:14;;;;;;;49.15;27.48;;;;;;;22.84;15.80;102349.03;4951913;29;20131;-73
2022/03/25 08:53:41;;;;;;;52.00;26.73;;;;;;;23.15;15.60;102345.00;4955029;28;20053;-72
2022/03/25 08:56:07;;;;;;;53.00;27.67;;;;;;;22.66;15.80;102341.34;5031773;28;20081;-73
2022/03/25 08:58:34;;;;;;;52.03;27.45;;;;;;;22.47;15.90;102350.31;5032186;28;20121;-73
2022/03/25 09:01:01;;;;;;;50.88;27.75;;;;;;;22.56;16.32;102349.09;5043244;28;20131;-73
2022/03/25 09:03:28;;;;;;;45.53;27.83;;;;;;;22.73;15.96;102350.44;5053285;28;20044;-73
2022/03/25 09:05:54;;;;;;;53.92;30.02;;;;;;;23.13;16.31;102349.84;5071760;28;20043;-72
2022/03/25 09:08:21;;;;;;;50.05;30.58;;;;;;;22.84;16.68;102346.28;5067413;28;20071;-72
2022/03/25 09:10:49;;;;;;;55.78;31.63;;;;;;;23.24;15.91;102350.09;5070677;28;20044;-73
2022/03/25 09:13:16;;;;;;;53.75;30.80;;;;;;;23.48;15.70;102350.56;5071495;28;20128;-72
2022/03/25 09:15:44;;;;;;;56.08;30.35;;;;;;;23.36;16.21;102346.75;5068045;28;20085;-72
2022/03/25 09:18:10;;;;;;;56.80;32.38;;;;;;;23.73;16.07;102345.34;5060162;28;20083;-72
2022/03/25 09:20:37;;;;;;;51.95;31.65;;;;;;;23.05;16.52;102353.53;5052036;28;20131;-72
2022/03/25 09:23:03;;;;;;;62.47;32.95;;;;;;;22.75;17.18;102356.56;5052804;28;20453;-72
2022/03/25 09:25:31;;;;;;;60.67;31.63;;;;;;;22.78;16.87;102347.97;5033742;28;20045;-72
2022/03/25 09:27:57;;;;;;;59.45;30.33;;;;;;;23.35;16.65;102345.91;5051932;28;20139;-72
2022/03/25 09:30:24;;;;;;;53.63;31.70;;;;;;;23.11;16.46;102341.78;5051940;28;20097;-72
2022/03/25 09:33:07;;;;;;;61.88;32.55;;;;;;;23.99;15.83;102347.31;5049651;28;20045;-73
2022/03/25 09:35:38;;;;;;;54.90;31.40;;;;;;;23.15;17.03;102354.03;5051372;28;20047;-72
2022/03/25 09:38:05;;;;;;;52.40;31.95;;;;;;;24.02;15.98;102341.38;5050697;28;20071;-72
2022/03/25 09:40:32;;;;;;;55.67;31.58;;;;;;;22.97;17.01;102359.19;5051740;28;20044;-73
2022/03/25 09:42:58;;;;;;;47.75;29.48;;;;;;;22.71;17.55;102349.81;5034258;28;20048;-76
2022/03/25 09:45:27;;;;;;;64.72;34.13;;;;;;;23.19;16.79;102344.41;5051492;28;20044;-77
2022/03/25 09:47:55;;;;;;;56.42;32.80;;;;;;;23.47;16.94;102349.72;5052697;28;20045;-76
2022/03/25 09:50:24;;;;;;;57.00;31.85;;;;;;;23.72;16.50;102352.72;5054257;28;20116;-76
2022/03/25 09:52:51;;;;;;;53.17;32.03;;;;;;;23.63;16.45;102351.22;5054954;28;20075;-76
2022/03/25 09:55:36;;;;;;;58.97;33.25;;;;;;;24.36;15.82;102350.44;5051717;28;20788;-76
2022/03/25 09:58:03;;;;;;;61.53;31.77;;;;;;;24.68;15.82;102338.59;5051389;28;20103;-75
2022/03/25 10:00:30;;;;;;;53.15;31.20;;;;;;;25.26;15.41;102353.38;5051441;28;20049;-75
2022/03/25 10:02:57;;;;;;;56.88;32.38;;;;;;;23.58;16.88;102345.53;5049285;28;20045;-75
2022/03/25 10:05:25;;;;;;;53.72;32.30;;;;;;;24.50;16.10;102343.88;5052403;28;20097;-77
2022/03/25 10:07:56;;;;;;;50.13;30.75;;;;;;;25.20;15.55;102351.50;5051316;28;20059;-76
2022/03/25 10:10:27;;;;;;;55.85;33.40;;;;;;;24.80;15.62;102337.91;5052202;28;20400;-76
2022/03/25 10:13:00;;;;;;;65.40;35.40;;;;;;;24.44;16.08;102342.88;5051660;28;20041;-77
2022/03/25 10:15:30;;;;;;;52.25;32.85;;;;;;;25.11;15.78;102332.53;5052791;28;20048;-77
2022/03/25 10:18:03;;;;;;;60.85;31.13;;;;;;;25.31;15.55;102335.19;5055668;28;20128;-77
2022/03/25 10:20:32;;;;;;;53.72;31.15;;;;;;;25.24;15.38;102339.03;5055515;28;20037;-77
2022/03/25 10:23:12;;;;;;;55.63;31.02;;;;;;;25.81;15.03;102337.19;5054885;28;20052;-78
2022/03/25 10:25:49;;;;;;;54.10;31.75;;;;;;;24.72;16.04;102329.94;5042129;28;20052;-77
2022/03/25 10:28:36;;;;;;;53.55;31.38;;;;;;;24.88;15.77;102329.41;5053218;28;20503;-76
2022/03/25 10:31:11;;;;;;;65.57;32.55;;;;;;;25.62;15.31;102322.53;5045845;28;20041;-76
2022/03/25 10:33:52;;;;;;;58.22;32.88;;;;;;;25.86;15.24;102329.13;5054975;28;20374;-77
2022/03/25 10:36:25;;;;;;;64.23;33.83;;;;;;;25.59;15.44;102321.06;5055003;28;20115;-77
2022/03/25 10:38:58;;;;;;;58.55;32.92;;;;;;;25.21;15.72;102329.31;5057596;28;20393;-77
2022/03/25 10:41:36;;;;;;;55.63;32.65;;;;;;;25.96;15.23;102331.34;5067290;28;20037;-77
2022/03/25 10:44:05;;;;;;;49.17;33.63;;;;;;;25.49;15.23;102330.84;5063263;28;20057;-77
2022/03/25 10:46:45;;;;;;;58.28;34.53;;;;;;;24.99;15.84;102326.03;5075342;28;20044;-76
2022/03/25 10:49:14;;;;;;;56.67;33.97;;;;;;;24.68;15.96;102316.63;5055222;28;20131;-76
2022/03/25 10:51:52;;;;;;;47.42;33.25;;;;;;;24.70;16.05;102332.03;5067005;28;20049;-76
2022/03/25 10:54:23;;;;;;;53.65;33.35;;;;;;;24.48;16.54;102328.72;5050698;28;20427;-76
2022/03/25 10:56:53;;;;;;;56.58;31.17;;;;;;;24.82;16.02;102322.03;5041633;28;20485;-77
2022/03/25 10:59:36;;;;;;;65.57;31.88;;;;;;;23.23;17.21;102321.03;5074864;28;20041;-76
2022/03/25 11:02:07;;;;;;;58.28;32.88;;;;;;;24.62;16.45;102322.97;5075115;28;20052;-76
2022/03/25 11:04:35;;;;;;;53.83;32.53;;;;;;;24.83;16.24;102312.78;5071524;28;20048;-76
2022/03/25 11:07:02;;;;;;;55.92;31.33;;;;;;;24.54;16.47;102305.91;5075936;28;20484;-76
2022/03/25 11:09:30;;;;;;;61.78;31.38;;;;;;;24.43;16.65;102310.16;5074028;28;20107;-76
2022/03/25 11:11:59;;;;;;;57.42;32.20;;;;;;;24.47;16.58;102303.16;5064775;28;20049;-76
2022/03/25 11:14:25;;;;;;;58.40;31.38;;;;;;;24.66;16.56;102306.94;5046665;28;20064;-76
2022/03/25 11:17:00;;;;;;;52.28;30.48;;;;;;;24.26;16.71;102303.41;5055038;28;20048;-76
2022/03/25 11:19:30;;;;;;;58.90;31.48;;;;;;;23.18;17.81;102317.19;5055417;28;20127;-76
2022/03/25 11:21:57;;;;;;;51.42;31.60;;;;;;;23.31;17.78;102310.94;5053876;28;20076;-76